PWSweather.com
Personal Weather Stations
Station Observations
UISISLE1
Newport, Isle ofWight, ISLE OF WIGHT PO30 2JX

NewportIsle ofWight, ISLE OF WIGHT PO30 2JX

Lat: 50.72, Lon: -1.27

Elevation: 45

Station Type: Davis Vantage Pro Plus

http://www.isleofwightweather.co.uk

High Low Average
Temperature 46.3°F7.9°C 37.5°F3.1°C 41.3°F5.2°C
Dew Point 38.3°F3.5°C 33.9°F1.1°C 35.6°F2.0°C
Winds 14.9 mph 24.0 kmh 2.5 mph 4.0 kmh 7.0 mph WNW11.3 kmh WNW
Wind Gusts 19.6 mph31.5 kmh 3.1 mph5.0 kmh 10.0 mph16.1 kmh
Humidity 89% 65% 81%
Pressure 29.85 in1010.8 mb 29.57 in1001.4 mb -
Precipitation 0.00 in0.0 mm - -
Hour Temp Dew Point Humidity Winds Wind Gusts Pressure Precip Precip Rate Daily Precip Total
12:00 AM 40.6°F4.8°C 35.5°F1.9°C 82% 7.7 mph WSW12.4 kmh WSW 10.3 mph16.6 kmh 29.59 in1002.0 mb - 0.00 in0.0 mm 0.00 in0.0 mm
12:15 AM 40.3°F4.6°C 35.5°F1.9°C 83% 10.6 mph W17.1 kmh W 11.3 mph18.2 kmh 29.58 in1001.7 mb - 0.00 in0.0 mm 0.00 in0.0 mm
12:30 AM 40.1°F4.5°C 35.4°F1.9°C 83% 8.0 mph WSW12.9 kmh WSW 9.3 mph15.0 kmh 29.58 in1001.7 mb - 0.00 in0.0 mm 0.00 in0.0 mm
12:45 AM 39.8°F4.3°C 35.4°F1.9°C 84% 8.0 mph W12.9 kmh W 10.3 mph16.6 kmh 29.58 in1001.7 mb - 0.00 in0.0 mm 0.00 in0.0 mm
01:00 AM 39.8°F4.3°C 35.6°F2.0°C 85% 6.4 mph W10.3 kmh W 12.4 mph20.0 kmh 29.58 in1001.7 mb - 0.00 in0.0 mm 0.00 in0.0 mm
01:30 AM 40.1°F4.5°C 36.5°F2.5°C 87% 9.2 mph W14.8 kmh W 13.0 mph20.9 kmh 29.57 in1001.4 mb - 0.00 in0.0 mm 0.00 in0.0 mm
01:45 AM 40.8°F4.9°C 37.2°F2.9°C 87% 7.2 mph NW11.6 kmh NW 15.5 mph24.9 kmh 29.57 in1001.4 mb - 0.00 in0.0 mm 0.00 in0.0 mm
02:00 AM 41.2°F5.1°C 37.3°F2.9°C 86% 7.8 mph W12.6 kmh W 12.4 mph20.0 kmh 29.58 in1001.7 mb - 0.00 in0.0 mm 0.00 in0.0 mm
02:15 AM 41.4°F5.2°C 37.5°F3.1°C 86% 9.1 mph W14.6 kmh W 8.2 mph13.2 kmh 29.58 in1001.7 mb - 0.00 in0.0 mm 0.00 in0.0 mm
02:30 AM 41.2°F5.1°C 37.3°F2.9°C 86% 6.4 mph W10.3 kmh W 11.3 mph18.2 kmh 29.58 in1001.7 mb - 0.00 in0.0 mm 0.00 in0.0 mm
02:45 AM 41.0°F5.0°C 37.2°F2.9°C 86% 8.1 mph W13.0 kmh W 10.3 mph16.6 kmh 29.58 in1001.7 mb - 0.00 in0.0 mm 0.00 in0.0 mm
03:00 AM 41.0°F5.0°C 37.4°F3.0°C 87% 6.3 mph WNW10.1 kmh WNW 9.0 mph14.5 kmh 29.58 in1001.7 mb - 0.00 in0.0 mm 0.00 in0.0 mm
03:15 AM 41.0°F5.0°C 37.4°F3.0°C 87% 6.8 mph W10.9 kmh W 9.3 mph15.0 kmh 29.58 in1001.7 mb - 0.00 in0.0 mm 0.00 in0.0 mm
03:30 AM 41.0°F5.0°C 37.4°F3.0°C 87% 5.7 mph W9.2 kmh W 10.3 mph16.6 kmh 29.58 in1001.7 mb - 0.00 in0.0 mm 0.00 in0.0 mm
03:45 AM 40.5°F4.7°C 36.9°F2.7°C 87% 7.0 mph W11.3 kmh W 11.3 mph18.2 kmh 29.58 in1001.7 mb - 0.00 in0.0 mm 0.00 in0.0 mm
04:00 AM 40.0°F4.4°C 36.7°F2.6°C 88% 5.7 mph WNW9.2 kmh WNW 6.2 mph10.0 kmh 29.59 in1002.0 mb - 0.00 in0.0 mm 0.00 in0.0 mm
04:15 AM 39.6°F4.2°C 36.3°F2.4°C 88% 5.3 mph W8.5 kmh W 9.3 mph15.0 kmh 29.59 in1002.0 mb - 0.00 in0.0 mm 0.00 in0.0 mm
04:30 AM 39.3°F4.1°C 36.0°F2.2°C 88% 5.2 mph WNW8.4 kmh WNW 8.2 mph13.2 kmh 29.60 in1002.4 mb - 0.00 in0.0 mm 0.00 in0.0 mm
04:45 AM 39.1°F3.9°C 36.1°F2.3°C 89% 3.8 mph WSW6.1 kmh WSW 5.1 mph8.2 kmh 29.61 in1002.7 mb - 0.00 in0.0 mm 0.00 in0.0 mm
05:00 AM 38.8°F3.8°C 35.6°F2.0°C 88% 4.7 mph WSW7.6 kmh WSW 6.2 mph10.0 kmh 29.61 in1002.7 mb - 0.00 in0.0 mm 0.00 in0.0 mm
05:15 AM 38.7°F3.7°C 35.7°F2.1°C 89% 6.7 mph W10.8 kmh W 6.2 mph10.0 kmh 29.62 in1003.0 mb - 0.00 in0.0 mm 0.00 in0.0 mm
05:30 AM 38.8°F3.8°C 35.8°F2.1°C 89% 7.5 mph WSW12.1 kmh WSW 10.3 mph16.6 kmh 29.62 in1003.0 mb - 0.00 in0.0 mm 0.00 in0.0 mm
05:45 AM 38.8°F3.8°C 35.8°F2.1°C 89% 6.0 mph WNW9.7 kmh WNW 11.3 mph18.2 kmh 29.63 in1003.4 mb - 0.00 in0.0 mm 0.00 in0.0 mm
06:00 AM 38.8°F3.8°C 35.6°F2.0°C 88% 6.2 mph W10.0 kmh W 8.2 mph13.2 kmh 29.63 in1003.4 mb - 0.00 in0.0 mm 0.00 in0.0 mm
06:15 AM 38.8°F3.8°C 35.3°F1.8°C 87% 5.9 mph W9.5 kmh W 8.2 mph13.2 kmh 29.64 in1003.7 mb - 0.00 in0.0 mm 0.00 in0.0 mm
06:30 AM 38.9°F3.8°C 35.1°F1.7°C 86% 6.3 mph W10.1 kmh W 9.3 mph15.0 kmh 29.64 in1003.7 mb - 0.00 in0.0 mm 0.00 in0.0 mm
06:45 AM 38.8°F3.8°C 35.0°F1.7°C 86% 9.5 mph WNW15.3 kmh WNW 13.0 mph20.9 kmh 29.65 in1004.1 mb - 0.00 in0.0 mm 0.00 in0.0 mm
07:00 AM 38.8°F3.8°C 35.0°F1.7°C 86% 5.7 mph WSW9.2 kmh WSW 8.2 mph13.2 kmh 29.65 in1004.1 mb - 0.00 in0.0 mm 0.00 in0.0 mm
07:15 AM 38.6°F3.7°C 34.8°F1.6°C 86% 5.9 mph WSW9.5 kmh WSW 9.3 mph15.0 kmh 29.66 in1004.4 mb - 0.00 in0.0 mm 0.00 in0.0 mm
07:30 AM 38.5°F3.6°C 34.7°F1.5°C 86% 5.2 mph W8.4 kmh W 8.2 mph13.2 kmh 29.66 in1004.4 mb - 0.00 in0.0 mm 0.00 in0.0 mm
07:45 AM 38.4°F3.6°C 34.9°F1.6°C 87% 3.9 mph SW6.3 kmh SW 6.0 mph9.7 kmh 29.66 in1004.4 mb - 0.00 in0.0 mm 0.00 in0.0 mm
08:00 AM 38.3°F3.5°C 34.8°F1.6°C 87% 4.2 mph W6.8 kmh W 7.0 mph11.3 kmh 29.68 in1005.1 mb - 0.00 in0.0 mm 0.00 in0.0 mm
08:15 AM 38.2°F3.4°C 35.0°F1.7°C 88% 6.4 mph WNW10.3 kmh WNW 9.3 mph15.0 kmh 29.68 in1005.1 mb - 0.00 in0.0 mm 0.00 in0.0 mm
08:30 AM 38.4°F3.6°C 35.4°F1.9°C 89% 4.3 mph WNW6.9 kmh WNW 9.3 mph15.0 kmh 29.68 in1005.1 mb - 0.00 in0.0 mm 0.00 in0.0 mm
08:45 AM 38.8°F3.8°C 35.8°F2.1°C 89% 7.0 mph WNW11.3 kmh WNW 9.3 mph15.0 kmh 29.69 in1005.4 mb - 0.00 in0.0 mm 0.00 in0.0 mm
09:00 AM 39.4°F4.1°C 36.4°F2.4°C 89% 7.5 mph WNW12.1 kmh WNW 10.3 mph16.6 kmh 29.70 in1005.8 mb - 0.00 in0.0 mm 0.00 in0.0 mm
09:15 AM 39.9°F4.4°C 36.6°F2.6°C 88% 4.9 mph NW7.9 kmh NW 7.2 mph11.6 kmh 29.70 in1005.8 mb - 0.00 in0.0 mm 0.00 in0.0 mm
09:30 AM 40.3°F4.6°C 36.7°F2.6°C 87% 6.4 mph WSW10.3 kmh WSW 8.2 mph13.2 kmh 29.71 in1006.1 mb - 0.00 in0.0 mm 0.00 in0.0 mm
09:45 AM 40.9°F4.9°C 37.0°F2.8°C 86% 6.4 mph WNW10.3 kmh WNW 11.3 mph18.2 kmh 29.71 in1006.1 mb - 0.00 in0.0 mm 0.00 in0.0 mm
10:00 AM 41.4°F5.2°C 37.2°F2.9°C 85% 7.4 mph W11.9 kmh W 10.3 mph16.6 kmh 29.71 in1006.1 mb - 0.00 in0.0 mm 0.00 in0.0 mm
10:15 AM 41.9°F5.5°C 37.7°F3.2°C 85% 7.3 mph W11.7 kmh W 8.2 mph13.2 kmh 29.72 in1006.4 mb - 0.00 in0.0 mm 0.00 in0.0 mm
10:30 AM 42.6°F5.9°C 38.1°F3.4°C 84% 10.1 mph NW16.3 kmh NW 16.5 mph26.6 kmh 29.72 in1006.4 mb - 0.00 in0.0 mm 0.00 in0.0 mm
10:45 AM 43.5°F6.4°C 38.3°F3.5°C 82% 9.1 mph WNW14.6 kmh WNW 15.5 mph24.9 kmh 29.72 in1006.4 mb - 0.00 in0.0 mm 0.00 in0.0 mm
11:00 AM 44.0°F6.7°C 37.6°F3.1°C 78% 9.5 mph NW15.3 kmh NW 11.3 mph18.2 kmh 29.72 in1006.4 mb - 0.00 in0.0 mm 0.00 in0.0 mm
11:15 AM 43.9°F6.6°C 36.8°F2.7°C 76% 9.0 mph NW14.5 kmh NW 13.4 mph21.6 kmh 29.73 in1006.8 mb - 0.00 in0.0 mm 0.00 in0.0 mm
11:30 AM 44.4°F6.9°C 37.3°F2.9°C 76% 8.3 mph WNW13.4 kmh WNW 11.3 mph18.2 kmh 29.72 in1006.4 mb - 0.00 in0.0 mm 0.00 in0.0 mm
11:45 AM 45.2°F7.3°C 36.7°F2.6°C 72% 14.9 mph NW24.0 kmh NW 19.6 mph31.5 kmh 29.73 in1006.8 mb - 0.00 in0.0 mm 0.00 in0.0 mm
12:00 PM 44.8°F7.1°C 36.0°F2.2°C 71% 10.6 mph WNW17.1 kmh WNW 18.5 mph29.8 kmh 29.73 in1006.8 mb - 0.00 in0.0 mm 0.00 in0.0 mm
12:15 PM 45.0°F7.2°C 36.2°F2.3°C 71% 11.7 mph NW18.8 kmh NW 17.5 mph28.2 kmh 29.72 in1006.4 mb - 0.00 in0.0 mm 0.00 in0.0 mm
12:30 PM 45.3°F7.4°C 36.1°F2.3°C 70% 13.7 mph WNW22.0 kmh WNW 19.6 mph31.5 kmh 29.73 in1006.8 mb - 0.00 in0.0 mm 0.00 in0.0 mm
12:45 PM 45.5°F7.5°C 35.9°F2.2°C 69% 11.5 mph NW18.5 kmh NW 18.5 mph29.8 kmh 29.73 in1006.8 mb - 0.00 in0.0 mm 0.00 in0.0 mm
01:00 PM 45.3°F7.4°C 35.4°F1.9°C 68% 10.1 mph NW16.3 kmh NW 15.5 mph24.9 kmh 29.73 in1006.8 mb - 0.00 in0.0 mm 0.00 in0.0 mm
01:15 PM 45.6°F7.6°C 35.3°F1.8°C 67% 10.0 mph NW16.1 kmh NW 12.4 mph20.0 kmh 29.73 in1006.8 mb - 0.00 in0.0 mm 0.00 in0.0 mm
01:30 PM 46.2°F7.9°C 35.8°F2.1°C 67% 10.3 mph NW16.6 kmh NW 12.4 mph20.0 kmh 29.72 in1006.4 mb - 0.00 in0.0 mm 0.00 in0.0 mm
01:45 PM 46.3°F7.9°C 35.2°F1.8°C 65% 13.7 mph NW22.0 kmh NW 17.5 mph28.2 kmh 29.72 in1006.4 mb - 0.00 in0.0 mm 0.00 in0.0 mm
02:00 PM 46.0°F7.8°C 35.7°F2.1°C 67% 7.6 mph NNW12.2 kmh NNW 13.4 mph21.6 kmh 29.72 in1006.4 mb - 0.00 in0.0 mm 0.00 in0.0 mm
02:15 PM 45.9°F7.7°C 35.2°F1.8°C 66% 9.7 mph NW15.6 kmh NW 15.5 mph24.9 kmh 29.73 in1006.8 mb - 0.00 in0.0 mm 0.00 in0.0 mm
02:30 PM 45.8°F7.7°C 34.7°F1.5°C 65% 12.4 mph WNW20.0 kmh WNW 16.5 mph26.6 kmh 29.72 in1006.4 mb - 0.00 in0.0 mm 0.00 in0.0 mm
02:45 PM 46.0°F7.8°C 34.9°F1.6°C 65% 7.0 mph WNW11.3 kmh WNW 10.3 mph16.6 kmh 29.72 in1006.4 mb - 0.00 in0.0 mm 0.00 in0.0 mm
03:00 PM 45.9°F7.7°C 34.8°F1.6°C 65% 10.5 mph NW16.9 kmh NW 15.5 mph24.9 kmh 29.73 in1006.8 mb - 0.00 in0.0 mm 0.00 in0.0 mm
03:15 PM 45.7°F7.6°C 34.6°F1.4°C 65% 10.2 mph NW16.4 kmh NW 11.3 mph18.2 kmh 29.73 in1006.8 mb - 0.00 in0.0 mm 0.00 in0.0 mm
03:30 PM 45.4°F7.4°C 34.7°F1.5°C 66% 8.1 mph NW13.0 kmh NW 13.4 mph21.6 kmh 29.73 in1006.8 mb - 0.00 in0.0 mm 0.00 in0.0 mm
03:45 PM 45.1°F7.3°C 35.2°F1.8°C 68% 8.6 mph WNW13.8 kmh WNW 11.3 mph18.2 kmh 29.73 in1006.8 mb - 0.00 in0.0 mm 0.00 in0.0 mm
04:00 PM 44.8°F7.1°C 35.6°F2.0°C 70% 9.5 mph NW15.3 kmh NW 12.4 mph20.0 kmh 29.73 in1006.8 mb - 0.00 in0.0 mm 0.00 in0.0 mm
04:15 PM 44.8°F7.1°C 35.6°F2.0°C 70% 9.1 mph NW14.6 kmh NW 14.4 mph23.2 kmh 29.74 in1007.1 mb - 0.00 in0.0 mm 0.00 in0.0 mm
04:30 PM 44.2°F6.8°C 34.3°F1.3°C 68% 6.7 mph NNW10.8 kmh NNW 11.3 mph18.2 kmh 29.75 in1007.5 mb - 0.00 in0.0 mm 0.00 in0.0 mm
04:45 PM 43.7°F6.5°C 34.6°F1.4°C 70% 4.9 mph NW7.9 kmh NW 8.2 mph13.2 kmh 29.75 in1007.5 mb - 0.00 in0.0 mm 0.00 in0.0 mm
05:00 PM 43.2°F6.2°C 34.4°F1.3°C 71% 4.4 mph WNW7.1 kmh WNW 6.2 mph10.0 kmh 29.75 in1007.5 mb - 0.00 in0.0 mm 0.00 in0.0 mm
05:15 PM 42.6°F5.9°C 34.5°F1.4°C 73% 4.9 mph W7.9 kmh W 8.2 mph13.2 kmh 29.76 in1007.8 mb - 0.00 in0.0 mm 0.00 in0.0 mm
05:30 PM 42.1°F5.6°C 34.4°F1.3°C 74% 6.2 mph W10.0 kmh W 6.2 mph10.0 kmh 29.76 in1007.8 mb - 0.00 in0.0 mm 0.00 in0.0 mm
05:45 PM 41.7°F5.4°C 34.7°F1.5°C 76% 4.7 mph NW7.6 kmh NW 7.2 mph11.6 kmh 29.76 in1007.8 mb - 0.00 in0.0 mm 0.00 in0.0 mm
06:00 PM 41.3°F5.2°C 34.3°F1.3°C 76% 4.0 mph W6.4 kmh W 4.0 mph6.4 kmh 29.77 in1008.1 mb - 0.00 in0.0 mm 0.00 in0.0 mm
06:15 PM 41.0°F5.0°C 34.3°F1.3°C 77% 6.6 mph W10.6 kmh W 7.2 mph11.6 kmh 29.77 in1008.1 mb - 0.00 in0.0 mm 0.00 in0.0 mm
06:30 PM 40.9°F4.9°C 34.6°F1.4°C 78% 6.2 mph WSW10.0 kmh WSW 8.2 mph13.2 kmh 29.77 in1008.1 mb - 0.00 in0.0 mm 0.00 in0.0 mm
06:45 PM 41.0°F5.0°C 35.0°F1.7°C 79% 3.3 mph W5.3 kmh W 4.1 mph6.6 kmh 29.78 in1008.5 mb - 0.00 in0.0 mm 0.00 in0.0 mm
07:00 PM 41.0°F5.0°C 35.3°F1.8°C 80% 5.4 mph W8.7 kmh W 8.2 mph13.2 kmh 29.79 in1008.8 mb - 0.00 in0.0 mm 0.00 in0.0 mm
07:15 PM 41.0°F5.0°C 35.6°F2.0°C 81% 5.7 mph W9.2 kmh W 9.3 mph15.0 kmh 29.79 in1008.8 mb - 0.00 in0.0 mm 0.00 in0.0 mm
07:30 PM 40.8°F4.9°C 35.4°F1.9°C 81% 8.3 mph NW13.4 kmh NW 12.4 mph20.0 kmh 29.80 in1009.1 mb - 0.00 in0.0 mm 0.00 in0.0 mm
07:45 PM 40.4°F4.7°C 35.3°F1.8°C 82% 5.2 mph WNW8.4 kmh WNW 12.4 mph20.0 kmh 29.80 in1009.1 mb - 0.00 in0.0 mm 0.00 in0.0 mm
08:00 PM 40.1°F4.5°C 35.0°F1.7°C 82% 6.8 mph WNW10.9 kmh WNW 10.3 mph16.6 kmh 29.80 in1009.1 mb - 0.00 in0.0 mm 0.00 in0.0 mm
08:15 PM 39.9°F4.4°C 35.2°F1.8°C 83% 5.2 mph WNW8.4 kmh WNW 8.2 mph13.2 kmh 29.81 in1009.5 mb - 0.00 in0.0 mm 0.00 in0.0 mm
08:30 PM 39.8°F4.3°C 35.1°F1.7°C 83% 5.6 mph WNW9.0 kmh WNW 8.2 mph13.2 kmh 29.81 in1009.5 mb - 0.00 in0.0 mm 0.00 in0.0 mm
08:45 PM 39.6°F4.2°C 35.2°F1.8°C 84% 4.7 mph NW7.6 kmh NW 8.2 mph13.2 kmh 29.82 in1009.8 mb - 0.00 in0.0 mm 0.00 in0.0 mm
09:00 PM 39.2°F4.0°C 34.8°F1.6°C 84% 3.8 mph NW6.1 kmh NW 6.2 mph10.0 kmh 29.82 in1009.8 mb - 0.00 in0.0 mm 0.00 in0.0 mm
09:15 PM 39.0°F3.9°C 34.6°F1.4°C 84% 3.9 mph NW6.3 kmh NW 8.2 mph13.2 kmh 29.82 in1009.8 mb - 0.00 in0.0 mm 0.00 in0.0 mm
09:30 PM 39.1°F3.9°C 35.0°F1.7°C 85% 6.6 mph NW10.6 kmh NW 9.3 mph15.0 kmh 29.83 in1010.2 mb - 0.00 in0.0 mm 0.00 in0.0 mm
09:45 PM 39.2°F4.0°C 35.1°F1.7°C 85% 5.4 mph NNW8.7 kmh NNW 9.3 mph15.0 kmh 29.83 in1010.2 mb - 0.00 in0.0 mm 0.00 in0.0 mm
10:00 PM 39.1°F3.9°C 35.0°F1.7°C 85% 5.4 mph NW8.7 kmh NW 7.2 mph11.6 kmh 29.83 in1010.2 mb - 0.00 in0.0 mm 0.00 in0.0 mm
10:15 PM 38.9°F3.8°C 34.8°F1.6°C 85% 4.2 mph NW6.8 kmh NW 5.1 mph8.2 kmh 29.83 in1010.2 mb - 0.00 in0.0 mm 0.00 in0.0 mm
10:30 PM 38.7°F3.7°C 34.6°F1.4°C 85% 4.5 mph NW7.2 kmh NW 6.2 mph10.0 kmh 29.84 in1010.5 mb - 0.00 in0.0 mm 0.00 in0.0 mm
10:45 PM 38.5°F3.6°C 34.7°F1.5°C 86% 3.2 mph NW5.1 kmh NW 5.1 mph8.2 kmh 29.84 in1010.5 mb - 0.00 in0.0 mm 0.00 in0.0 mm
11:00 PM 38.1°F3.4°C 34.0°F1.1°C 85% 2.5 mph NW4.0 kmh NW 3.1 mph5.0 kmh 29.84 in1010.5 mb - 0.00 in0.0 mm 0.00 in0.0 mm
11:15 PM 37.9°F3.3°C 34.1°F1.2°C 86% 4.0 mph NW6.4 kmh NW 5.1 mph8.2 kmh 29.84 in1010.5 mb - 0.00 in0.0 mm 0.00 in0.0 mm
11:30 PM 37.7°F3.2°C 33.9°F1.1°C 86% 3.6 mph NW5.8 kmh NW 5.1 mph8.2 kmh 29.84 in1010.5 mb - 0.00 in0.0 mm 0.00 in0.0 mm
11:45 PM 37.5°F3.1°C 34.0°F1.1°C 87% 2.6 mph WNW4.2 kmh WNW 4.1 mph6.6 kmh 29.85 in1010.8 mb - 0.00 in0.0 mm 0.00 in0.0 mm